Time;durP1;ratioP1;P1;durP2;ratioP2;P2;SDS_P1;SDS_P2;PMS_P1;PMS_P2;Temp;Humidity;BMP_temperature;BMP_pressure;BME280_temperature;BME280_humidity;BME280_pressure;Samples;Min_cycle;Max_cycle;Signal;HPM_P1;HPM_P2
2024/01/22 00:00:13;;;;;;;5.00;2.25;;;;;6.30;98969.00;;;;5074545;28;20048;-69
2024/01/22 00:02:40;;;;;;;8.10;2.63;;;;;6.30;98974.00;;;;5074185;28;20055;-69
2024/01/22 00:05:10;;;;;;;7.00;2.38;;;;;6.20;98967.00;;;;5072422;28;20044;-69
2024/01/22 00:07:37;;;;;;;8.73;2.42;;;;;6.30;98967.00;;;;5074059;28;20131;-69
2024/01/22 00:10:04;;;;;;;5.82;2.20;;;;;6.30;98962.00;;;;5074064;28;20044;-69
2024/01/22 00:12:31;;;;;;;5.93;2.20;;;;;6.30;98951.00;;;;5072933;28;20466;-69
2024/01/22 00:14:58;;;;;;;3.63;2.00;;;;;6.30;98947.00;;;;5073254;28;20072;-69
2024/01/22 00:17:24;;;;;;;4.05;2.35;;;;;6.30;98945.00;;;;5072677;28;20063;-70
2024/01/22 00:19:51;;;;;;;8.55;2.30;;;;;6.30;98934.00;;;;5072871;28;20139;-69
2024/01/22 00:22:18;;;;;;;6.32;1.88;;;;;6.30;98937.00;;;;5073883;28;20405;-70
2024/01/22 00:24:44;;;;;;;6.15;2.83;;;;;6.40;98935.00;;;;5073014;28;20610;-69
2024/01/22 00:27:11;;;;;;;3.58;2.25;;;;;6.40;98922.00;;;;5073662;28;20124;-70
2024/01/22 00:29:37;;;;;;;8.20;2.85;;;;;6.40;98918.00;;;;5073664;28;20098;-70
2024/01/22 00:32:05;;;;;;;5.25;2.25;;;;;6.50;98926.00;;;;5073548;28;20044;-69
2024/01/22 00:34:31;;;;;;;6.90;2.45;;;;;6.50;98920.00;;;;5073024;28;20094;-69
2024/01/22 00:36:59;;;;;;;4.75;1.73;;;;;6.50;98929.00;;;;5072354;28;20037;-69
2024/01/22 00:39:25;;;;;;;7.90;2.28;;;;;6.50;98916.00;;;;5073612;28;20051;-69
2024/01/22 00:41:52;;;;;;;5.72;2.22;;;;;6.60;98919.00;;;;5073284;28;20040;-69
2024/01/22 00:44:19;;;;;;;5.20;1.98;;;;;6.60;98912.00;;;;5072733;28;20563;-69
2024/01/22 00:46:45;;;;;;;5.45;2.00;;;;;6.60;98912.00;;;;5073179;28;20474;-69
2024/01/22 00:49:12;;;;;;;3.88;1.73;;;;;6.50;98902.00;;;;5073117;28;20044;-70
2024/01/22 00:51:39;;;;;;;7.85;2.38;;;;;6.60;98877.00;;;;5073424;28;20044;-69
2024/01/22 00:54:05;;;;;;;3.42;2.13;;;;;6.60;98872.00;;;;5072938;28;20064;-71
2024/01/22 00:56:33;;;;;;;6.00;1.88;;;;;6.60;98880.00;;;;5073324;28;20444;-70
2024/01/22 00:58:59;;;;;;;5.30;2.28;;;;;6.60;98892.00;;;;5073344;28;20040;-70
2024/01/22 01:01:29;;;;;;;5.28;2.20;;;;;6.60;98883.00;;;;5072172;28;20417;-70
2024/01/22 01:03:56;;;;;;;5.75;1.85;;;;;6.60;98884.00;;;;5071226;28;20043;-70
2024/01/22 01:06:23;;;;;;;5.43;2.20;;;;;6.60;98884.00;;;;5072821;28;20041;-70
2024/01/22 01:08:49;;;;;;;5.38;2.28;;;;;6.60;98892.00;;;;5072835;28;20045;-70
2024/01/22 01:11:16;;;;;;;3.67;2.13;;;;;6.60;98883.00;;;;5071738;28;20044;-71
2024/01/22 01:13:43;;;;;;;6.68;1.98;;;;;6.60;98896.00;;;;5071487;28;20135;-70
2024/01/22 01:16:10;;;;;;;2.60;1.67;;;;;6.70;98892.00;;;;5072751;28;20036;-70
2024/01/22 01:18:36;;;;;;;4.95;2.22;;;;;6.70;98897.00;;;;5072851;28;20048;-70
2024/01/22 01:21:03;;;;;;;6.35;2.22;;;;;6.80;98885.00;;;;5071499;28;20541;-69
2024/01/22 01:23:30;;;;;;;4.78;2.15;;;;;6.80;98875.00;;;;5072369;28;20123;-69
2024/01/22 01:25:56;;;;;;;7.78;1.95;;;;;6.80;98869.00;;;;5072648;28;20047;-71
2024/01/22 01:28:23;;;;;;;9.00;2.30;;;;;6.80;98867.00;;;;5072850;28;20036;-71
2024/01/22 01:30:49;;;;;;;5.03;2.10;;;;;6.90;98869.00;;;;5071354;28;20052;-70
2024/01/22 01:33:16;;;;;;;5.05;1.90;;;;;6.90;98867.00;;;;5072727;28;20468;-70
2024/01/22 01:35:44;;;;;;;6.72;2.08;;;;;6.90;98873.00;;;;5072199;28;20047;-71
2024/01/22 01:38:11;;;;;;;6.60;2.00;;;;;6.90;98855.00;;;;5072701;28;20040;-71
2024/01/22 01:40:41;;;;;;;5.78;1.98;;;;;6.90;98845.00;;;;5071519;28;20037;-70
2024/01/22 01:43:08;;;;;;;5.20;1.83;;;;;6.90;98836.00;;;;5071288;28;20083;-70
2024/01/22 01:45:35;;;;;;;3.92;2.10;;;;;7.00;98840.00;;;;5072124;28;20095;-71
2024/01/22 01:48:02;;;;;;;7.20;2.78;;;;;7.00;98843.00;;;;5071324;28;20143;-69
2024/01/22 01:50:29;;;;;;;4.85;2.42;;;;;7.00;98830.00;;;;5072560;28;20669;-69
2024/01/22 01:52:56;;;;;;;6.22;2.72;;;;;7.00;98837.00;;;;5072560;28;20041;-69
2024/01/22 01:55:23;;;;;;;5.07;2.05;;;;;7.10;98833.00;;;;5072104;28;20105;-69
2024/01/22 01:57:50;;;;;;;3.53;1.60;;;;;7.10;98831.00;;;;5071387;28;20116;-70
2024/01/22 02:00:26;;;;;;;7.45;2.55;;;;;7.10;98816.00;;;;5071194;28;20041;-70
2024/01/22 02:02:53;;;;;;;11.05;3.15;;;;;7.10;98825.00;;;;5072424;28;20094;-69
2024/01/22 02:05:20;;;;;;;3.75;1.70;;;;;7.10;98822.00;;;;5071827;28;20410;-70
2024/01/22 02:07:47;;;;;;;3.72;1.80;;;;;7.20;98822.00;;;;5072520;28;20123;-69
2024/01/22 02:10:14;;;;;;;5.70;1.95;;;;;7.20;98805.00;;;;5072179;28;20044;-70
2024/01/22 02:12:40;;;;;;;4.88;1.98;;;;;7.30;98807.00;;;;5071220;28;20413;-69
2024/01/22 02:15:08;;;;;;;6.63;1.95;;;;;7.30;98812.00;;;;5071960;28;20068;-69
2024/01/22 02:17:35;;;;;;;4.10;1.80;;;;;7.40;98802.00;;;;5072332;28;20445;-70
2024/01/22 02:20:02;;;;;;;4.97;1.92;;;;;7.40;98786.00;;;;5072149;28;20048;-70
2024/01/22 02:22:29;;;;;;;3.88;1.80;;;;;7.40;98782.00;;;;5072108;28;20045;-70
2024/01/22 02:24:56;;;;;;;2.10;1.58;;;;;7.40;98766.00;;;;5070450;28;20048;-69
2024/01/22 02:27:23;;;;;;;4.20;1.80;;;;;7.40;98766.00;;;;5072426;28;20041;-69
2024/01/22 02:29:50;;;;;;;4.13;2.10;;;;;7.50;98766.00;;;;5072129;28;20559;-69
2024/01/22 02:32:17;;;;;;;6.50;1.80;;;;;7.50;98771.00;;;;5072199;28;20045;-70
2024/01/22 02:34:44;;;;;;;4.63;1.80;;;;;7.50;98772.00;;;;5070373;28;20072;-70
2024/01/22 02:37:11;;;;;;;4.03;1.92;;;;;7.60;98765.00;;;;5072027;28;20032;-70
2024/01/22 02:39:38;;;;;;;5.10;1.77;;;;;7.60;98766.00;;;;5070739;28;20131;-69
2024/01/22 02:42:05;;;;;;;3.97;1.60;;;;;7.60;98752.00;;;;5072137;28;20223;-70
2024/01/22 02:44:34;;;;;;;2.95;1.90;;;;;7.60;98753.00;;;;5073385;28;20048;-70
2024/01/22 02:47:02;;;;;;;3.55;1.58;;;;;7.70;98759.00;;;;5075715;28;20047;-71
2024/01/22 02:49:28;;;;;;;6.53;1.75;;;;;7.70;98756.00;;;;5075500;28;20074;-70
2024/01/22 02:51:55;;;;;;;2.97;1.50;;;;;7.70;98759.00;;;;5075582;28;20123;-70
2024/01/22 02:54:22;;;;;;;5.82;1.52;;;;;7.80;98739.00;;;;5073818;28;20040;-70
2024/01/22 02:56:48;;;;;;;3.22;1.58;;;;;7.80;98726.00;;;;5075631;28;20040;-70
2024/01/22 02:59:17;;;;;;;2.78;1.55;;;;;7.80;98729.00;;;;5074554;28;20049;-70
2024/01/22 03:01:43;;;;;;;2.45;1.67;;;;;7.80;98730.00;;;;5074250;28;20051;-71
2024/01/22 03:04:10;;;;;;;4.97;1.80;;;;;7.90;98721.00;;;;5073847;28;20047;-70
2024/01/22 03:06:38;;;;;;;2.40;1.33;;;;;7.90;98709.00;;;;5075423;28;20047;-70
2024/01/22 03:09:05;;;;;;;4.68;1.77;;;;;7.90;98715.00;;;;5074258;28;20048;-70
2024/01/22 03:11:32;;;;;;;3.83;1.73;;;;;7.90;98707.00;;;;5075395;28;20044;-70
2024/01/22 03:13:58;;;;;;;3.25;1.48;;;;;8.00;98710.00;;;;5074750;28;20075;-70
2024/01/22 03:16:25;;;;;;;3.10;1.50;;;;;8.00;98720.00;;;;5075170;28;20086;-70
2024/01/22 03:18:53;;;;;;;4.43;1.48;;;;;8.00;98720.00;;;;5057239;28;20458;-70
2024/01/22 03:21:19;;;;;;;4.47;1.48;;;;;8.00;98726.00;;;;5075137;28;20047;-70
2024/01/22 03:23:46;;;;;;;4.13;1.70;;;;;8.00;98723.00;;;;5074510;28;20149;-70
2024/01/22 03:26:22;;;;;;;2.15;1.40;;;;;8.00;98721.00;;;;5074852;28;20040;-70
2024/01/22 03:28:52;;;;;;;3.85;1.63;;;;;8.00;98716.00;;;;5074824;28;20044;-70
2024/01/22 03:31:23;;;;;;;4.50;1.63;;;;;8.00;98722.00;;;;5074715;28;20090;-70
2024/01/22 03:33:51;;;;;;;3.95;1.70;;;;;8.00;98714.00;;;;5074158;28;20045;-70
2024/01/22 03:36:18;;;;;;;4.38;1.42;;;;;7.90;98715.00;;;;5074735;28;20051;-69
2024/01/22 03:38:45;;;;;;;4.07;1.60;;;;;8.00;98687.00;;;;5074781;28;20047;-70
2024/01/22 03:41:12;;;;;;;6.50;1.58;;;;;8.00;98680.00;;;;5074679;28;20044;-69
2024/01/22 03:43:43;;;;;;;4.70;1.67;;;;;8.10;98672.00;;;;5074052;28;20056;-70
2024/01/22 03:46:11;;;;;;;5.43;2.10;;;;;8.10;98663.00;;;;5073138;28;20048;-69
2024/01/22 03:48:37;;;;;;;5.25;1.70;;;;;8.10;98651.00;;;;5074483;28;20040;-70
2024/01/22 03:51:05;;;;;;;6.32;1.85;;;;;8.10;98649.00;;;;5074751;28;20052;-69
2024/01/22 03:53:32;;;;;;;5.10;1.90;;;;;8.20;98656.00;;;;5072863;28;20044;-70
2024/01/22 03:56:02;;;;;;;3.67;1.55;;;;;8.20;98653.00;;;;5073000;28;20120;-69
2024/01/22 03:58:29;;;;;;;3.60;1.85;;;;;8.20;98661.00;;;;5074431;28;20044;-70
2024/01/22 04:00:56;;;;;;;4.75;1.55;;;;;8.20;98641.00;;;;5073291;28;20417;-69
2024/01/22 04:03:23;;;;;;;3.40;1.63;;;;;8.20;98638.00;;;;5072803;28;20049;-72
2024/01/22 04:05:50;;;;;;;6.03;1.77;;;;;8.20;98652.00;;;;5074296;28;20048;-70
2024/01/22 04:08:16;;;;;;;3.17;1.55;;;;;8.20;98642.00;;;;5074344;28;20126;-69
2024/01/22 04:10:43;;;;;;;4.15;1.75;;;;;8.20;98640.00;;;;5072971;28;20143;-69
2024/01/22 04:13:10;;;;;;;3.30;1.58;;;;;8.20;98638.00;;;;5072914;28;20045;-68
2024/01/22 04:15:36;;;;;;;6.25;1.83;;;;;8.20;98622.00;;;;5073984;28;20048;-68
2024/01/22 04:18:03;;;;;;;4.20;1.50;;;;;8.20;98614.00;;;;5073922;28;20507;-68
2024/01/22 04:20:30;;;;;;;2.72;1.40;;;;;8.20;98613.00;;;;5072593;28;20052;-68
2024/01/22 04:22:56;;;;;;;6.97;1.90;;;;;8.30;98634.00;;;;5072781;28;20044;-68
2024/01/22 04:25:23;;;;;;;6.07;1.60;;;;;8.30;98621.00;;;;5073108;28;20047;-68
2024/01/22 04:27:49;;;;;;;5.35;1.48;;;;;8.30;98606.00;;;;5072377;28;20044;-68
2024/01/22 04:30:16;;;;;;;4.18;1.73;;;;;8.30;98613.00;;;;5073671;28;20048;-68
2024/01/22 04:32:43;;;;;;;1.90;1.40;;;;;8.30;98625.00;;;;5072575;28;20459;-68
2024/01/22 04:35:10;;;;;;;3.25;1.73;;;;;8.30;98618.00;;;;5055198;28;20523;-68
2024/01/22 04:37:36;;;;;;;3.35;1.52;;;;;8.40;98619.00;;;;5056108;28;20147;-68
2024/01/22 04:40:11;;;;;;;2.78;1.60;;;;;8.40;98631.00;;;;5072227;28;20478;-68
2024/01/22 04:42:40;;;;;;;4.50;1.70;;;;;8.40;98631.00;;;;5072305;28;20500;-68
2024/01/22 04:45:07;;;;;;;4.72;1.50;;;;;8.50;98624.00;;;;5072698;28;20123;-68
2024/01/22 04:47:34;;;;;;;2.67;1.60;;;;;8.50;98614.00;;;;5073328;28;20037;-68
2024/01/22 04:50:01;;;;;;;2.75;1.50;;;;;8.50;98615.00;;;;5073338;28;20090;-68
2024/01/22 04:52:29;;;;;;;4.05;2.03;;;;;8.60;98601.00;;;;5055317;28;20166;-67
2024/01/22 04:54:55;;;;;;;4.22;1.48;;;;;8.50;98603.00;;;;5072504;28;20400;-68
2024/01/22 04:57:38;;;;;;;3.65;1.45;;;;;8.50;98590.00;;;;5073098;28;20120;-68
2024/01/22 05:00:05;;;;;;;5.07;1.90;;;;;8.60;98599.00;;;;5072940;28;20521;-68
2024/01/22 05:02:32;;;;;;;7.03;1.85;;;;;8.60;98597.00;;;;5072000;28;20405;-68
2024/01/22 05:05:01;;;;;;;5.18;2.25;;;;;8.70;98594.00;;;;5072597;28;20055;-69
2024/01/22 05:07:28;;;;;;;5.45;1.85;;;;;8.60;98575.00;;;;5072425;28;20041;-68
2024/01/22 05:10:04;;;;;;;2.47;1.83;;;;;8.70;98579.00;;;;5071891;28;20416;-69
2024/01/22 05:12:31;;;;;;;3.40;1.48;;;;;8.70;98565.00;;;;5072922;28;20433;-68
2024/01/22 05:14:57;;;;;;;2.85;1.27;;;;;8.70;98561.00;;;;5070990;28;20040;-69
2024/01/22 05:17:26;;;;;;;6.13;2.00;;;;;8.70;98560.00;;;;5072714;28;20041;-68
2024/01/22 05:19:53;;;;;;;2.30;1.58;;;;;8.80;98562.00;;;;5072569;28;20468;-69
2024/01/22 05:22:20;;;;;;;2.80;1.20;;;;;8.80;98552.00;;;;5072824;28;20127;-68
2024/01/22 05:24:47;;;;;;;5.25;1.38;;;;;8.80;98565.00;;;;5072141;28;20094;-68
2024/01/22 05:27:13;;;;;;;2.63;1.48;;;;;8.80;98542.00;;;;5072559;28;20040;-68
2024/01/22 05:29:40;;;;;;;4.07;1.67;;;;;8.80;98541.00;;;;5071386;28;20051;-68
2024/01/22 05:32:07;;;;;;;2.67;1.67;;;;;8.80;98536.00;;;;5072830;28;20053;-68
2024/01/22 05:34:33;;;;;;;2.15;1.20;;;;;8.80;98528.00;;;;5073210;28;20041;-68
2024/01/22 05:37:00;;;;;;;4.70;1.40;;;;;8.90;98518.00;;;;5076072;28;20072;-68
2024/01/22 05:39:27;;;;;;;5.47;2.67;;;;;8.90;98509.00;;;;5075157;28;20135;-68
2024/01/22 05:41:54;;;;;;;3.53;1.45;;;;;9.00;98510.00;;;;5073751;28;20499;-68
2024/01/22 05:44:21;;;;;;;8.45;2.08;;;;;9.00;98499.00;;;;5074835;28;20378;-67
2024/01/22 05:46:48;;;;;;;1.38;1.20;;;;;9.00;98486.00;;;;5074792;28;20098;-67
2024/01/22 05:49:15;;;;;;;2.97;1.60;;;;;9.10;98489.00;;;;5074898;28;20131;-67
2024/01/22 05:51:42;;;;;;;3.70;1.65;;;;;9.10;98487.00;;;;5073097;28;20124;-68
2024/01/22 05:54:09;;;;;;;2.22;1.35;;;;;9.10;98487.00;;;;5073241;28;20123;-68
2024/01/22 05:56:36;;;;;;;3.63;1.30;;;;;9.10;98476.00;;;;5074760;28;20063;-67
2024/01/22 05:59:03;;;;;;;4.72;1.88;;;;;9.20;98464.00;;;;5077807;28;20131;-68
2024/01/22 06:01:30;;;;;;;5.18;1.70;;;;;9.20;98461.00;;;;5075936;28;20100;-68
2024/01/22 06:03:57;;;;;;;4.57;1.52;;;;;9.30;98458.00;;;;5073737;28;20489;-68
2024/01/22 06:06:24;;;;;;;3.42;1.40;;;;;9.30;98445.00;;;;5075409;28;20075;-69
2024/01/22 06:08:51;;;;;;;3.92;1.38;;;;;9.40;98453.00;;;;5075133;28;20708;-68
2024/01/22 06:11:19;;;;;;;3.60;1.67;;;;;9.40;98439.00;;;;5075438;28;20047;-67
2024/01/22 06:13:46;;;;;;;3.33;1.30;;;;;9.50;98428.00;;;;5078246;28;20087;-69
2024/01/22 06:16:26;;;;;;;3.35;1.10;;;;;9.50;98453.00;;;;5079372;28;20048;-67
2024/01/22 06:18:53;;;;;;;1.90;1.35;;;;;9.60;98442.00;;;;5081538;28;20048;-67
2024/01/22 06:21:20;;;;;;;2.03;1.17;;;;;9.60;98441.00;;;;5085932;28;20040;-68
2024/01/22 06:23:47;;;;;;;2.63;1.58;;;;;9.70;98445.00;;;;5084295;28;20057;-68
2024/01/22 06:26:15;;;;;;;2.65;1.35;;;;;9.70;98425.00;;;;5082738;28;20501;-68
2024/01/22 06:28:42;;;;;;;2.95;1.23;;;;;9.80;98437.00;;;;5078531;28;20045;-69
2024/01/22 06:31:09;;;;;;;3.35;1.10;;;;;9.80;98432.00;;;;5080863;28;20489;-68
2024/01/22 06:33:36;;;;;;;3.03;1.27;;;;;9.80;98428.00;;;;5062522;28;20048;-68
2024/01/22 06:36:03;;;;;;;1.95;1.30;;;;;9.90;98408.00;;;;5077313;28;20050;-69
2024/01/22 06:38:29;;;;;;;1.98;1.27;;;;;9.90;98453.00;;;;5077186;28;20045;-68
2024/01/22 06:40:56;;;;;;;2.47;1.20;;;;;10.00;98444.00;;;;5077005;28;20529;-68
2024/01/22 06:43:23;;;;;;;5.43;1.48;;;;;10.00;98447.00;;;;5076107;28;20044;-70
2024/01/22 06:45:50;;;;;;;1.92;1.20;;;;;9.90;98455.00;;;;5058862;28;20056;-68
2024/01/22 06:48:16;;;;;;;4.38;1.60;;;;;10.00;98443.00;;;;5075974;28;20085;-68
2024/01/22 06:50:43;;;;;;;2.35;1.35;;;;;10.00;98439.00;;;;5074946;28;20044;-68
2024/01/22 06:53:10;;;;;;;2.47;1.30;;;;;9.90;98423.00;;;;5075919;28;20063;-69
2024/01/22 06:55:36;;;;;;;3.72;1.50;;;;;9.80;98432.00;;;;5075085;28;20566;-68
2024/01/22 06:58:03;;;;;;;2.40;1.50;;;;;9.70;98422.00;;;;5075943;28;20044;-69
2024/01/22 07:00:32;;;;;;;4.15;1.30;;;;;9.60;98447.00;;;;5075496;28;20131;-68
2024/01/22 07:02:59;;;;;;;4.18;1.63;;;;;9.50;98421.00;;;;5074410;28;20056;-68
2024/01/22 07:05:26;;;;;;;2.25;1.45;;;;;9.40;98419.00;;;;5074886;28;20127;-69
2024/01/22 07:07:54;;;;;;;2.22;1.30;;;;;9.40;98431.00;;;;5074016;28;20525;-70
2024/01/22 07:10:21;;;;;;;5.80;1.90;;;;;9.30;98423.00;;;;5075212;28;20049;-69
2024/01/22 07:12:47;;;;;;;2.70;1.95;;;;;9.30;98413.00;;;;5075097;28;20246;-69
2024/01/22 07:15:14;;;;;;;4.38;1.65;;;;;9.10;98398.00;;;;5074892;28;20040;-69
2024/01/22 07:17:41;;;;;;;6.40;2.40;;;;;9.00;98391.00;;;;5074275;28;20046;-69
2024/01/22 07:20:12;;;;;;;6.10;2.10;;;;;8.90;98393.00;;;;5074429;28;20080;-67
2024/01/22 07:22:41;;;;;;;2.10;1.73;;;;;8.80;98398.00;;;;5076630;28;20128;-67
2024/01/22 07:25:12;;;;;;;3.08;1.63;;;;;8.70;98412.00;;;;5075939;28;20056;-68
2024/01/22 07:27:39;;;;;;;2.63;1.70;;;;;8.70;98410.00;;;;5075958;28;20075;-68
2024/01/22 07:30:09;;;;;;;5.30;1.90;;;;;8.70;98421.00;;;;5076133;28;20124;-66
2024/01/22 07:32:36;;;;;;;4.10;2.03;;;;;8.70;98381.00;;;;5075583;28;20134;-65
2024/01/22 07:35:08;;;;;;;3.47;1.80;;;;;8.60;98417.00;;;;5074681;28;20047;-65
2024/01/22 07:37:37;;;;;;;3.80;1.88;;;;;8.50;98377.00;;;;5074974;28;20083;-65
2024/01/22 07:40:06;;;;;;;4.22;1.90;;;;;8.50;98414.00;;;;5075317;28;20049;-66
2024/01/22 07:42:33;;;;;;;4.63;2.00;;;;;8.40;98387.00;;;;5075354;28;20048;-65
2024/01/22 07:45:01;;;;;;;2.95;1.90;;;;;8.40;98415.00;;;;5075263;28;20055;-65
2024/01/22 07:47:28;;;;;;;3.90;2.30;;;;;8.50;98404.00;;;;5075880;28;20123;-65
2024/01/22 07:49:54;;;;;;;3.63;2.15;;;;;8.60;98393.00;;;;5074603;28;20664;-65
2024/01/22 07:52:22;;;;;;;2.72;1.75;;;;;8.50;98404.00;;;;5075786;28;20413;-65
2024/01/22 07:54:52;;;;;;;4.03;1.95;;;;;8.50;98406.00;;;;5075263;28;20102;-65
2024/01/22 07:57:18;;;;;;;2.92;1.88;;;;;8.50;98404.00;;;;5073923;28;20036;-64
2024/01/22 07:59:46;;;;;;;2.65;1.67;;;;;8.50;98412.00;;;;5074594;28;20083;-66
2024/01/22 08:02:13;;;;;;;4.53;1.70;;;;;8.60;98448.00;;;;5073333;28;20574;-66
2024/01/22 08:04:39;;;;;;;4.65;2.17;;;;;8.50;98418.00;;;;5073716;28;20504;-65
2024/01/22 08:07:06;;;;;;;2.38;1.50;;;;;8.50;98428.00;;;;5074216;28;20048;-65
2024/01/22 08:09:34;;;;;;;3.38;2.05;;;;;8.50;98419.00;;;;5074069;28;20045;-65
2024/01/22 08:12:00;;;;;;;3.58;2.03;;;;;8.50;98435.00;;;;5072879;28;20379;-65
2024/01/22 08:14:27;;;;;;;4.45;2.10;;;;;8.50;98424.00;;;;5073852;28;20493;-65
2024/01/22 08:16:54;;;;;;;5.30;2.15;;;;;8.50;98432.00;;;;5072693;28;20054;-66
2024/01/22 08:19:20;;;;;;;6.78;3.05;;;;;8.60;98434.00;;;;5074130;28;20127;-67
2024/01/22 08:21:48;;;;;;;4.72;2.45;;;;;8.60;98418.00;;;;5074332;28;20094;-64
2024/01/22 08:24:15;;;;;;;5.47;2.15;;;;;8.70;98430.00;;;;5072001;28;20114;-65
2024/01/22 08:26:42;;;;;;;6.32;2.38;;;;;8.70;98419.00;;;;5073766;28;20119;-65
2024/01/22 08:29:08;;;;;;;3.10;1.88;;;;;8.70;98439.00;;;;5073932;28;20044;-64
2024/01/22 08:31:35;;;;;;;3.63;2.30;;;;;8.70;98412.00;;;;5074708;28;20040;-64
2024/01/22 08:34:04;;;;;;;5.22;2.00;;;;;8.70;98443.00;;;;5073524;28;20049;-64
2024/01/22 08:36:31;;;;;;;2.15;1.73;;;;;8.70;98443.00;;;;5073520;28;20075;-64
2024/01/22 08:38:57;;;;;;;5.45;1.98;;;;;8.70;98437.00;;;;5072320;28;20122;-64
2024/01/22 08:41:27;;;;;;;5.25;2.00;;;;;8.70;98447.00;;;;5072870;28;20044;-65
2024/01/22 08:43:59;;;;;;;7.38;2.65;;;;;8.80;98453.00;;;;5073074;28;20127;-65
2024/01/22 08:46:27;;;;;;;6.18;2.00;;;;;8.80;98428.00;;;;5072209;28;20131;-65
2024/01/22 08:48:55;;;;;;;2.83;1.80;;;;;8.90;98439.00;;;;5073162;28;20037;-65
2024/01/22 08:51:22;;;;;;;4.18;1.70;;;;;9.00;98433.00;;;;5073456;28;20043;-65
2024/01/22 08:53:49;;;;;;;5.05;2.55;;;;;9.00;98418.00;;;;5072712;28;20049;-66
2024/01/22 08:56:16;;;;;;;5.53;1.90;;;;;9.20;98418.00;;;;5072138;28;20060;-68
2024/01/22 08:58:42;;;;;;;5.03;2.25;;;;;9.30;98423.00;;;;5073111;28;20041;-66
2024/01/22 09:01:09;;;;;;;3.50;1.83;;;;;9.30;98413.00;;;;5072211;28;20044;-65
2024/01/22 09:03:36;;;;;;;4.20;1.95;;;;;9.30;98415.00;;;;5072916;28;20047;-65
2024/01/22 09:06:06;;;;;;;4.97;1.50;;;;;9.30;98407.00;;;;5071858;28;20040;-65
2024/01/22 09:08:34;;;;;;;5.97;2.22;;;;;9.30;98402.00;;;;5072786;28;20067;-65
2024/01/22 09:11:01;;;;;;;7.60;2.13;;;;;9.30;98405.00;;;;5072706;28;20052;-65
2024/01/22 09:13:28;;;;;;;4.32;1.83;;;;;9.40;98396.00;;;;5072608;28;20119;-65
2024/01/22 09:15:57;;;;;;;2.85;1.35;;;;;9.40;98388.00;;;;5072910;28;20052;-65
2024/01/22 09:18:24;;;;;;;2.13;1.52;;;;;9.50;98377.00;;;;5072753;28;20517;-66
2024/01/22 09:20:52;;;;;;;5.10;1.70;;;;;9.50;98380.00;;;;5054823;28;20174;-65
2024/01/22 09:23:19;;;;;;;3.33;1.60;;;;;9.50;98395.00;;;;5071279;28;20036;-64
2024/01/22 09:25:45;;;;;;;2.00;1.50;;;;;9.60;98404.00;;;;5072005;28;20515;-65
2024/01/22 09:28:14;;;;;;;3.10;1.30;;;;;9.70;98378.00;;;;5072557;28;20080;-66
2024/01/22 09:30:41;;;;;;;2.20;1.50;;;;;9.70;98382.00;;;;5071261;28;20516;-65
2024/01/22 09:33:09;;;;;;;3.83;2.03;;;;;9.70;98388.00;;;;5072486;28;20040;-65
2024/01/22 09:35:40;;;;;;;3.80;1.48;;;;;9.80;98400.00;;;;5072041;28;20125;-66
2024/01/22 09:38:07;;;;;;;3.42;1.63;;;;;9.90;98369.00;;;;5071369;28;20044;-66
2024/01/22 09:40:34;;;;;;;5.18;1.58;;;;;9.90;98371.00;;;;5072860;28;20543;-65
2024/01/22 09:43:04;;;;;;;5.07;2.65;;;;;10.00;98375.00;;;;5072422;28;20044;-66
2024/01/22 09:45:32;;;;;;;3.63;2.88;;;;;10.00;98368.00;;;;5072173;28;20482;-65
2024/01/22 09:47:59;;;;;;;6.45;2.55;;;;;10.00;98364.00;;;;5072940;28;20036;-66
2024/01/22 09:50:29;;;;;;;7.25;4.43;;;;;10.10;98378.00;;;;5071135;28;20469;-65
2024/01/22 09:53:12;;;;;;;4.88;3.55;;;;;10.10;98365.00;;;;5072359;28;20094;-65
2024/01/22 09:55:40;;;;;;;2.45;1.52;;;;;10.10;98356.00;;;;5071984;28;20063;-65
2024/01/22 09:58:09;;;;;;;3.85;2.00;;;;;10.20;98361.00;;;;5072374;28;20094;-66
2024/01/22 10:00:37;;;;;;;3.92;2.45;;;;;10.20;98357.00;;;;5071214;28;20486;-65
2024/01/22 10:03:05;;;;;;;2.40;1.85;;;;;10.20;98356.00;;;;5072291;28;20090;-65
2024/01/22 10:05:32;;;;;;;6.38;3.13;;;;;10.20;98370.00;;;;5071719;28;20489;-65
2024/01/22 10:07:59;;;;;;;2.17;1.30;;;;;10.20;98331.00;;;;5072412;28;20036;-65
2024/01/22 10:10:25;;;;;;;8.88;2.53;;;;;10.10;98349.00;;;;5072290;28;20079;-65
2024/01/22 10:13:04;;;;;;;2.95;1.80;;;;;10.20;98339.00;;;;5072233;28;20504;-65
2024/01/22 10:15:34;;;;;;;3.03;2.17;;;;;10.20;98341.00;;;;5071900;28;20041;-66
2024/01/22 10:18:27;;;;;;;3.05;1.63;;;;;10.20;98321.00;;;;5071097;28;20120;-65
2024/01/22 10:20:56;;;;;;;2.75;2.28;;;;;10.10;98352.00;;;;5070434;28;20067;-65
2024/01/22 10:23:23;;;;;;;2.72;1.70;;;;;10.10;98339.00;;;;5071663;28;20044;-65
2024/01/22 10:25:50;;;;;;;2.13;1.50;;;;;10.20;98334.00;;;;5071125;28;20114;-65
2024/01/22 10:28:17;;;;;;;3.13;1.65;;;;;10.20;98330.00;;;;5071832;28;20040;-65
2024/01/22 10:30:46;;;;;;;3.30;2.00;;;;;10.30;98334.00;;;;5070822;28;20050;-66
2024/01/22 10:33:15;;;;;;;3.13;1.42;;;;;10.30;98331.00;;;;5072578;28;20044;-65
2024/01/22 10:35:43;;;;;;;2.63;1.30;;;;;10.30;98328.00;;;;5071302;28;20040;-66
2024/01/22 10:38:12;;;;;;;3.17;1.80;;;;;10.30;98340.00;;;;5072005;28;20045;-66
2024/01/22 10:40:39;;;;;;;5.43;1.73;;;;;10.40;98329.00;;;;5070727;28;20451;-67
2024/01/22 10:43:19;;;;;;;1.60;1.50;;;;;10.50;98309.00;;;;5072365;28;20048;-67
2024/01/22 10:45:49;;;;;;;2.70;1.45;;;;;10.40;98335.00;;;;5071673;28;20048;-67
2024/01/22 10:48:19;;;;;;;3.28;1.75;;;;;10.40;98314.00;;;;5054508;28;20127;-66
2024/01/22 10:51:05;;;;;;;3.30;1.50;;;;;10.40;98321.00;;;;5071785;28;20048;-67
2024/01/22 10:53:32;;;;;;;2.00;1.20;;;;;10.40;98301.00;;;;5053646;28;20044;-67
2024/01/22 10:56:02;;;;;;;3.05;1.42;;;;;10.30;98288.00;;;;5071871;28;20040;-67
2024/01/22 10:58:44;;;;;;;4.32;1.50;;;;;10.30;98285.00;;;;5071792;28;20079;-66
2024/01/22 11:01:16;;;;;;;2.15;1.75;;;;;10.30;98302.00;;;;5054011;28;20059;-66
2024/01/22 11:03:51;;;;;;;4.07;1.88;;;;;10.40;98281.00;;;;5071449;28;20036;-67
2024/01/22 11:06:22;;;;;;;2.22;1.52;;;;;10.40;98304.00;;;;5075376;28;20350;-67
2024/01/22 11:08:51;;;;;;;4.22;1.65;;;;;10.50;98286.00;;;;5075305;28;20060;-66
2024/01/22 11:11:19;;;;;;;1.88;1.38;;;;;10.60;98287.00;;;;5075103;28;20045;-67
2024/01/22 11:13:55;;;;;;;1.98;1.38;;;;;10.50;98288.00;;;;5074571;28;20044;-67
2024/01/22 11:16:22;;;;;;;4.15;1.60;;;;;10.60;98307.00;;;;5075285;28;20485;-67
2024/01/22 11:19:20;;;;;;;1.85;1.38;;;;;10.70;98297.00;;;;5075003;28;20524;-66
2024/01/22 11:21:46;;;;;;;4.60;1.58;;;;;10.70;98284.00;;;;5074992;28;20052;-67
2024/01/22 11:24:17;;;;;;;2.70;1.50;;;;;10.70;98328.00;;;;5074431;28;20139;-66
2024/01/22 11:26:51;;;;;;;2.88;1.42;;;;;10.70;98305.00;;;;5075247;28;20059;-67
2024/01/22 11:29:26;;;;;;;2.95;1.30;;;;;10.60;98305.00;;;;5075095;28;20493;-67
2024/01/22 11:31:54;;;;;;;2.20;1.45;;;;;10.60;98311.00;;;;5075096;28;20048;-67
2024/01/22 11:34:42;;;;;;;1.80;1.30;;;;;10.60;98311.00;;;;5074394;28;20067;-67
2024/01/22 11:37:32;;;;;;;3.80;1.60;;;;;10.50;98302.00;;;;5073620;28;20443;-67
2024/01/22 11:39:59;;;;;;;4.03;1.50;;;;;10.50;98316.00;;;;5074685;28;20119;-66
2024/01/22 11:42:28;;;;;;;2.55;1.30;;;;;10.60;98307.00;;;;5074554;28;20045;-67
2024/01/22 11:44:56;;;;;;;2.15;1.30;;;;;10.70;98302.00;;;;5073006;28;20047;-66
2024/01/22 11:47:23;;;;;;;1.48;1.30;;;;;10.70;98306.00;;;;5074636;28;20124;-66
2024/01/22 11:50:00;;;;;;;7.03;1.63;;;;;10.80;98284.00;;;;5074608;28;20094;-66
2024/01/22 11:52:29;;;;;;;3.20;1.70;;;;;10.80;98295.00;;;;5074658;28;20498;-67
2024/01/22 11:55:01;;;;;;;1.50;1.38;;;;;10.80;98282.00;;;;5073967;28;20064;-66
2024/01/22 11:57:31;;;;;;;3.03;1.40;;;;;10.90;98274.00;;;;5074392;28;20055;-66
2024/01/22 12:00:05;;;;;;;1.80;1.45;;;;;10.90;98262.00;;;;5074173;28;20426;-66
2024/01/22 12:02:39;;;;;;;1.75;1.30;;;;;10.90;98237.00;;;;5074335;28;20059;-67
2024/01/22 12:05:18;;;;;;;6.63;2.38;;;;;10.90;98244.00;;;;5073451;28;20041;-67
2024/01/22 12:07:48;;;;;;;1.65;1.25;;;;;10.90;98255.00;;;;5074438;28;20056;-67
2024/01/22 12:10:28;;;;;;;4.50;1.80;;;;;10.90;98260.00;;;;5072789;28;20045;-67
2024/01/22 12:13:03;;;;;;;5.80;1.67;;;;;11.00;98239.00;;;;5073920;28;20487;-67
2024/01/22 12:15:32;;;;;;;4.40;1.60;;;;;11.00;98246.00;;;;5072449;28;20040;-67
2024/01/22 12:18:01;;;;;;;2.75;1.30;;;;;11.00;98210.00;;;;5074028;28;20082;-67
2024/01/22 12:20:30;;;;;;;2.58;1.42;;;;;11.00;98227.00;;;;5073773;28;20064;-66
2024/01/22 12:23:01;;;;;;;3.00;1.50;;;;;11.10;98216.00;;;;5073808;28;20482;-67
2024/01/22 12:25:38;;;;;;;2.17;1.20;;;;;11.10;98234.00;;;;5073256;28;20051;-66
2024/01/22 12:28:07;;;;;;;3.38;1.75;;;;;11.00;98226.00;;;;5073717;28;20551;-67
2024/01/22 12:30:34;;;;;;;2.75;1.38;;;;;11.00;98222.00;;;;5073764;28;20413;-67